Billy Bishop Toronto City Centre Airport
CYTZ : now visible

Airfield :











YOU CAN JOIN US ON...

 
LOGIN :

Register | Disclaimer

   EN    FR    IT 

 









Legend :    VFR   Marginal VFR   IFR   Intensive IFR   Very Intensive IFR
Visi :
Ceiling :
>= 8 km
>= 3000ft
5 to 8 km
1000 to 3000 ft
1500m to 5 km
500 to 1000 ft
800 to 1500m
200 to 500 ft
< 800m
< 200 ft
Symbols :   Thunderstorms  Fog  Heavy snow  Heavy precipitations  Wind > 20 kt






- Airport Elevation : 251 ft
- IATA code : YTZ


CYTZ - Billy Bishop Toronto City Centre

CURRENT METAR :
  • 041200Z AUTO 31010KT 9SM CLR 08/05 A3023 RMK SLP241

EXPIRED METARs :
  • 041100Z AUTO 30005KT 9SM CLR 08/04 A3023 RMK SLP241
  • 041000Z AUTO VRB02KT 9SM FEW230 08/05 A3023 RMK SLP240

TAF TAF CYTZ
Valid from the 04 at 08:00 until the 05 at 08:00 UTC


040740Z 0408/0508 VRB03KT P6SM SCT240
FM050300 35008KT P6SM SKC
BECMG 0504/0506 32008KT RMK FCST BASED ON AUTO OBS. NXT FCST BY 041400Z
CZYZ FIR / North America



MET'MAP, your aeronautical weather chart ! - Copyright ORBIFLY December 2007 - Disclaimer

ORBIFLY MET'MAP TEAM :

Programming & Development : Alexandra Zaïnal
Original concept : Baudouin d'Aumeries
Technical & hardware support : Manuel Goepfert
Assistance : Marc-Olivier Méhu




SOURCES & CREDITS :

   NOAA       Earth
Advisory